sensor_id;sensor_type;location;lat;lon;timestamp;P1;durP1;ratioP1;P2;durP2;ratioP2
15130;SDS011;7666;50.920;4.628;2023-04-15T00:01:11;5.93;;;2.60;;
15130;SDS011;7666;50.920;4.628;2023-04-15T00:04:03;3.40;;;2.40;;
15130;SDS011;7666;50.920;4.628;2023-04-15T00:06:50;3.27;;;2.60;;
15130;SDS011;7666;50.920;4.628;2023-04-15T00:09:37;2.77;;;2.20;;
15130;SDS011;7666;50.920;4.628;2023-04-15T00:12:24;3.33;;;2.40;;
15130;SDS011;7666;50.920;4.628;2023-04-15T00:15:11;5.23;;;2.87;;
15130;SDS011;7666;50.920;4.628;2023-04-15T00:17:57;4.10;;;2.70;;
15130;SDS011;7666;50.920;4.628;2023-04-15T00:20:43;3.17;;;2.70;;
15130;SDS011;7666;50.920;4.628;2023-04-15T00:23:29;5.90;;;3.10;;
15130;SDS011;7666;50.920;4.628;2023-04-15T00:26:15;4.37;;;3.17;;
15130;SDS011;7666;50.920;4.628;2023-04-15T00:29:01;4.47;;;3.37;;
15130;SDS011;7666;50.920;4.628;2023-04-15T00:31:47;4.97;;;3.37;;
15130;SDS011;7666;50.920;4.628;2023-04-15T00:34:33;4.17;;;3.30;;
15130;SDS011;7666;50.920;4.628;2023-04-15T00:37:20;4.40;;;3.10;;
15130;SDS011;7666;50.920;4.628;2023-04-15T00:40:06;5.73;;;2.80;;
15130;SDS011;7666;50.920;4.628;2023-04-15T00:42:57;4.83;;;3.37;;
15130;SDS011;7666;50.920;4.628;2023-04-15T00:45:43;4.80;;;2.93;;
15130;SDS011;7666;50.920;4.628;2023-04-15T00:48:31;4.10;;;2.87;;
15130;SDS011;7666;50.920;4.628;2023-04-15T00:51:17;5.03;;;3.20;;
15130;SDS011;7666;50.920;4.628;2023-04-15T00:54:03;4.17;;;3.30;;
15130;SDS011;7666;50.920;4.628;2023-04-15T00:56:51;5.80;;;3.30;;
15130;SDS011;7666;50.920;4.628;2023-04-15T00:59:37;7.60;;;3.20;;
15130;SDS011;7666;50.920;4.628;2023-04-15T01:02:23;5.10;;;3.17;;
15130;SDS011;7666;50.920;4.628;2023-04-15T01:05:09;6.07;;;3.37;;
15130;SDS011;7666;50.920;4.628;2023-04-15T01:07:55;5.93;;;3.53;;
15130;SDS011;7666;50.920;4.628;2023-04-15T01:10:41;4.90;;;3.80;;
15130;SDS011;7666;50.920;4.628;2023-04-15T01:13:28;6.80;;;3.90;;
15130;SDS011;7666;50.920;4.628;2023-04-15T01:16:14;5.87;;;4.17;;
15130;SDS011;7666;50.920;4.628;2023-04-15T01:19:01;6.60;;;3.80;;
15130;SDS011;7666;50.920;4.628;2023-04-15T01:21:47;6.13;;;3.23;;
15130;SDS011;7666;50.920;4.628;2023-04-15T01:24:34;6.00;;;3.50;;
15130;SDS011;7666;50.920;4.628;2023-04-15T01:27:21;10.20;;;6.23;;
15130;SDS011;7666;50.920;4.628;2023-04-15T01:30:07;6.53;;;4.17;;
15130;SDS011;7666;50.920;4.628;2023-04-15T01:32:54;11.53;;;5.50;;
15130;SDS011;7666;50.920;4.628;2023-04-15T01:35:40;6.47;;;4.27;;
15130;SDS011;7666;50.920;4.628;2023-04-15T01:38:28;5.87;;;4.03;;
15130;SDS011;7666;50.920;4.628;2023-04-15T01:41:15;7.00;;;4.07;;
15130;SDS011;7666;50.920;4.628;2023-04-15T01:44:01;6.50;;;4.07;;
15130;SDS011;7666;50.920;4.628;2023-04-15T01:46:47;6.17;;;4.30;;
15130;SDS011;7666;50.920;4.628;2023-04-15T01:49:33;5.47;;;4.10;;
15130;SDS011;7666;50.920;4.628;2023-04-15T01:52:20;4.00;;;3.30;;
15130;SDS011;7666;50.920;4.628;2023-04-15T01:55:06;6.90;;;3.80;;
15130;SDS011;7666;50.920;4.628;2023-04-15T01:57:53;5.97;;;4.13;;
15130;SDS011;7666;50.920;4.628;2023-04-15T02:00:39;4.73;;;3.80;;
15130;SDS011;7666;50.920;4.628;2023-04-15T02:03:25;6.73;;;4.20;;
15130;SDS011;7666;50.920;4.628;2023-04-15T02:06:13;6.67;;;4.33;;
15130;SDS011;7666;50.920;4.628;2023-04-15T02:08:59;5.33;;;4.10;;
15130;SDS011;7666;50.920;4.628;2023-04-15T02:11:45;6.30;;;3.70;;
15130;SDS011;7666;50.920;4.628;2023-04-15T02:14:31;7.67;;;3.90;;
15130;SDS011;7666;50.920;4.628;2023-04-15T02:17:17;6.03;;;3.73;;
15130;SDS011;7666;50.920;4.628;2023-04-15T02:20:03;6.17;;;3.97;;
15130;SDS011;7666;50.920;4.628;2023-04-15T02:22:52;5.33;;;4.23;;
15130;SDS011;7666;50.920;4.628;2023-04-15T02:25:38;6.13;;;3.80;;
15130;SDS011;7666;50.920;4.628;2023-04-15T02:28:24;4.47;;;3.57;;
15130;SDS011;7666;50.920;4.628;2023-04-15T02:31:11;5.53;;;4.03;;
15130;SDS011;7666;50.920;4.628;2023-04-15T02:33:57;4.53;;;3.97;;
15130;SDS011;7666;50.920;4.628;2023-04-15T02:36:44;4.43;;;3.90;;
15130;SDS011;7666;50.920;4.628;2023-04-15T02:39:32;5.10;;;4.30;;
15130;SDS011;7666;50.920;4.628;2023-04-15T02:42:18;5.97;;;4.37;;
15130;SDS011;7666;50.920;4.628;2023-04-15T02:45:06;4.87;;;4.03;;
15130;SDS011;7666;50.920;4.628;2023-04-15T02:47:52;4.30;;;3.77;;
15130;SDS011;7666;50.920;4.628;2023-04-15T02:50:39;4.17;;;3.77;;
15130;SDS011;7666;50.920;4.628;2023-04-15T02:53:25;5.03;;;3.80;;
15130;SDS011;7666;50.920;4.628;2023-04-15T02:56:11;5.60;;;4.40;;
15130;SDS011;7666;50.920;4.628;2023-04-15T02:58:59;4.43;;;3.70;;
15130;SDS011;7666;50.920;4.628;2023-04-15T03:01:45;4.77;;;3.57;;
15130;SDS011;7666;50.920;4.628;2023-04-15T03:04:31;4.83;;;3.50;;
15130;SDS011;7666;50.920;4.628;2023-04-15T03:07:17;5.50;;;3.93;;
15130;SDS011;7666;50.920;4.628;2023-04-15T03:10:03;4.10;;;3.70;;
15130;SDS011;7666;50.920;4.628;2023-04-15T03:12:49;5.00;;;4.00;;
15130;SDS011;7666;50.920;4.628;2023-04-15T03:15:35;5.23;;;3.67;;
15130;SDS011;7666;50.920;4.628;2023-04-15T03:18:21;5.27;;;3.70;;
15130;SDS011;7666;50.920;4.628;2023-04-15T03:21:07;11.77;;;7.33;;
15130;SDS011;7666;50.920;4.628;2023-04-15T03:23:53;10.30;;;7.03;;
15130;SDS011;7666;50.920;4.628;2023-04-15T03:26:40;4.57;;;3.73;;
15130;SDS011;7666;50.920;4.628;2023-04-15T03:29:26;7.90;;;3.73;;
15130;SDS011;7666;50.920;4.628;2023-04-15T03:32:12;5.23;;;4.07;;
15130;SDS011;7666;50.920;4.628;2023-04-15T03:34:59;3.80;;;3.37;;
15130;SDS011;7666;50.920;4.628;2023-04-15T03:37:45;4.43;;;3.80;;
15130;SDS011;7666;50.920;4.628;2023-04-15T03:40:33;5.23;;;3.77;;
15130;SDS011;7666;50.920;4.628;2023-04-15T03:43:19;4.60;;;3.43;;
15130;SDS011;7666;50.920;4.628;2023-04-15T03:46:05;6.30;;;3.93;;
15130;SDS011;7666;50.920;4.628;2023-04-15T03:48:51;7.40;;;4.47;;
15130;SDS011;7666;50.920;4.628;2023-04-15T03:51:37;6.63;;;4.13;;
15130;SDS011;7666;50.920;4.628;2023-04-15T03:54:23;5.47;;;4.03;;
15130;SDS011;7666;50.920;4.628;2023-04-15T03:57:09;5.10;;;4.00;;
15130;SDS011;7666;50.920;4.628;2023-04-15T03:59:55;10.37;;;5.87;;
15130;SDS011;7666;50.920;4.628;2023-04-15T04:02:41;6.10;;;4.83;;
15130;SDS011;7666;50.920;4.628;2023-04-15T04:05:28;7.40;;;4.80;;
15130;SDS011;7666;50.920;4.628;2023-04-15T04:08:14;6.87;;;5.00;;
15130;SDS011;7666;50.920;4.628;2023-04-15T04:11:00;5.67;;;4.60;;
15130;SDS011;7666;50.920;4.628;2023-04-15T04:13:46;6.47;;;4.83;;
15130;SDS011;7666;50.920;4.628;2023-04-15T04:16:32;7.70;;;4.90;;
15130;SDS011;7666;50.920;4.628;2023-04-15T04:19:18;7.37;;;4.70;;
15130;SDS011;7666;50.920;4.628;2023-04-15T04:22:04;7.57;;;4.90;;
15130;SDS011;7666;50.920;4.628;2023-04-15T04:24:51;6.20;;;4.47;;
15130;SDS011;7666;50.920;4.628;2023-04-15T04:27:37;6.40;;;4.70;;
15130;SDS011;7666;50.920;4.628;2023-04-15T04:30:23;8.83;;;5.00;;
15130;SDS011;7666;50.920;4.628;2023-04-15T04:33:09;5.60;;;4.50;;
15130;SDS011;7666;50.920;4.628;2023-04-15T04:35:55;5.37;;;4.00;;
15130;SDS011;7666;50.920;4.628;2023-04-15T04:38:42;4.67;;;3.87;;
15130;SDS011;7666;50.920;4.628;2023-04-15T04:41:28;8.03;;;5.00;;
15130;SDS011;7666;50.920;4.628;2023-04-15T04:44:14;6.67;;;5.07;;
15130;SDS011;7666;50.920;4.628;2023-04-15T04:47:00;6.37;;;5.30;;
15130;SDS011;7666;50.920;4.628;2023-04-15T04:49:46;6.70;;;5.03;;
15130;SDS011;7666;50.920;4.628;2023-04-15T04:52:32;5.77;;;5.00;;
15130;SDS011;7666;50.920;4.628;2023-04-15T04:55:18;8.07;;;5.50;;
15130;SDS011;7666;50.920;4.628;2023-04-15T04:58:04;10.50;;;6.80;;
15130;SDS011;7666;50.920;4.628;2023-04-15T05:00:51;10.73;;;6.43;;
15130;SDS011;7666;50.920;4.628;2023-04-15T05:03:37;11.43;;;6.50;;
15130;SDS011;7666;50.920;4.628;2023-04-15T05:06:23;9.83;;;6.13;;
15130;SDS011;7666;50.920;4.628;2023-04-15T05:09:09;8.37;;;6.07;;
15130;SDS011;7666;50.920;4.628;2023-04-15T05:11:55;7.80;;;5.50;;
15130;SDS011;7666;50.920;4.628;2023-04-15T05:14:41;10.63;;;6.60;;
15130;SDS011;7666;50.920;4.628;2023-04-15T05:17:27;9.27;;;5.83;;
15130;SDS011;7666;50.920;4.628;2023-04-15T05:20:15;9.63;;;5.50;;
15130;SDS011;7666;50.920;4.628;2023-04-15T05:23:01;8.27;;;5.40;;
15130;SDS011;7666;50.920;4.628;2023-04-15T05:25:47;6.53;;;5.03;;
15130;SDS011;7666;50.920;4.628;2023-04-15T05:28:33;7.43;;;4.73;;
15130;SDS011;7666;50.920;4.628;2023-04-15T05:31:20;7.10;;;4.43;;
15130;SDS011;7666;50.920;4.628;2023-04-15T05:34:06;5.80;;;4.30;;
15130;SDS011;7666;50.920;4.628;2023-04-15T05:36:51;6.57;;;5.07;;
15130;SDS011;7666;50.920;4.628;2023-04-15T05:39:37;8.40;;;4.53;;
15130;SDS011;7666;50.920;4.628;2023-04-15T05:42:23;8.43;;;5.07;;
15130;SDS011;7666;50.920;4.628;2023-04-15T05:45:10;8.80;;;5.43;;
15130;SDS011;7666;50.920;4.628;2023-04-15T05:47:56;7.53;;;5.53;;
15130;SDS011;7666;50.920;4.628;2023-04-15T05:50:42;9.10;;;5.30;;
15130;SDS011;7666;50.920;4.628;2023-04-15T05:53:28;7.53;;;4.70;;
15130;SDS011;7666;50.920;4.628;2023-04-15T05:56:14;6.80;;;4.93;;
15130;SDS011;7666;50.920;4.628;2023-04-15T05:59:00;7.40;;;5.10;;
15130;SDS011;7666;50.920;4.628;2023-04-15T06:01:46;6.60;;;5.10;;
15130;SDS011;7666;50.920;4.628;2023-04-15T06:04:32;7.73;;;4.77;;
15130;SDS011;7666;50.920;4.628;2023-04-15T06:07:18;6.80;;;4.67;;
15130;SDS011;7666;50.920;4.628;2023-04-15T06:10:05;6.77;;;4.80;;
15130;SDS011;7666;50.920;4.628;2023-04-15T06:12:51;9.07;;;5.33;;
15130;SDS011;7666;50.920;4.628;2023-04-15T06:15:38;11.13;;;5.27;;
15130;SDS011;7666;50.920;4.628;2023-04-15T06:18:24;7.13;;;4.63;;
15130;SDS011;7666;50.920;4.628;2023-04-15T06:21:10;7.53;;;5.07;;
15130;SDS011;7666;50.920;4.628;2023-04-15T06:23:57;6.80;;;5.17;;
15130;SDS011;7666;50.920;4.628;2023-04-15T06:26:45;8.87;;;5.37;;
15130;SDS011;7666;50.920;4.628;2023-04-15T06:29:31;9.37;;;5.73;;
15130;SDS011;7666;50.920;4.628;2023-04-15T06:32:17;7.87;;;5.20;;
15130;SDS011;7666;50.920;4.628;2023-04-15T06:35:03;10.10;;;5.83;;
15130;SDS011;7666;50.920;4.628;2023-04-15T06:37:49;8.73;;;5.40;;
15130;SDS011;7666;50.920;4.628;2023-04-15T06:40:36;8.13;;;5.77;;
15130;SDS011;7666;50.920;4.628;2023-04-15T06:43:22;10.00;;;5.37;;
15130;SDS011;7666;50.920;4.628;2023-04-15T06:46:08;8.13;;;5.67;;
15130;SDS011;7666;50.920;4.628;2023-04-15T06:48:54;10.50;;;5.30;;
15130;SDS011;7666;50.920;4.628;2023-04-15T06:51:41;9.23;;;5.50;;
15130;SDS011;7666;50.920;4.628;2023-04-15T06:54:27;9.43;;;5.77;;
15130;SDS011;7666;50.920;4.628;2023-04-15T06:57:13;8.10;;;5.57;;
15130;SDS011;7666;50.920;4.628;2023-04-15T06:59:59;9.67;;;5.80;;
15130;SDS011;7666;50.920;4.628;2023-04-15T07:02:45;8.80;;;5.70;;
15130;SDS011;7666;50.920;4.628;2023-04-15T07:05:32;8.77;;;5.80;;
15130;SDS011;7666;50.920;4.628;2023-04-15T07:08:18;6.67;;;5.37;;
15130;SDS011;7666;50.920;4.628;2023-04-15T07:11:04;9.43;;;5.80;;
15130;SDS011;7666;50.920;4.628;2023-04-15T07:13:51;9.37;;;5.93;;
15130;SDS011;7666;50.920;4.628;2023-04-15T07:16:38;8.77;;;6.27;;
15130;SDS011;7666;50.920;4.628;2023-04-15T07:19:24;8.73;;;5.57;;
15130;SDS011;7666;50.920;4.628;2023-04-15T07:22:09;11.00;;;6.43;;
15130;SDS011;7666;50.920;4.628;2023-04-15T07:24:56;8.87;;;6.03;;
15130;SDS011;7666;50.920;4.628;2023-04-15T07:27:42;9.23;;;6.57;;
15130;SDS011;7666;50.920;4.628;2023-04-15T07:30:28;8.07;;;6.40;;
15130;SDS011;7666;50.920;4.628;2023-04-15T07:33:14;10.27;;;7.23;;
15130;SDS011;7666;50.920;4.628;2023-04-15T07:36:00;10.97;;;7.60;;
15130;SDS011;7666;50.920;4.628;2023-04-15T07:38:46;14.10;;;7.93;;
15130;SDS011;7666;50.920;4.628;2023-04-15T07:41:33;11.97;;;7.87;;
15130;SDS011;7666;50.920;4.628;2023-04-15T07:44:19;12.20;;;7.90;;
15130;SDS011;7666;50.920;4.628;2023-04-15T07:47:05;10.77;;;7.77;;
15130;SDS011;7666;50.920;4.628;2023-04-15T07:49:51;13.13;;;8.07;;
15130;SDS011;7666;50.920;4.628;2023-04-15T07:52:37;9.87;;;8.00;;
15130;SDS011;7666;50.920;4.628;2023-04-15T07:55:23;11.27;;;7.97;;
15130;SDS011;7666;50.920;4.628;2023-04-15T07:58:09;9.53;;;7.50;;
15130;SDS011;7666;50.920;4.628;2023-04-15T08:00:55;15.50;;;7.87;;
15130;SDS011;7666;50.920;4.628;2023-04-15T08:03:41;9.80;;;6.77;;
15130;SDS011;7666;50.920;4.628;2023-04-15T08:06:27;10.57;;;6.73;;
15130;SDS011;7666;50.920;4.628;2023-04-15T08:09:14;11.53;;;6.20;;
15130;SDS011;7666;50.920;4.628;2023-04-15T08:12:00;9.17;;;6.53;;
15130;SDS011;7666;50.920;4.628;2023-04-15T08:14:46;11.17;;;6.37;;
15130;SDS011;7666;50.920;4.628;2023-04-15T08:17:32;10.40;;;6.53;;
15130;SDS011;7666;50.920;4.628;2023-04-15T08:20:18;9.07;;;6.17;;
15130;SDS011;7666;50.920;4.628;2023-04-15T08:23:04;9.13;;;5.70;;
15130;SDS011;7666;50.920;4.628;2023-04-15T08:25:50;6.63;;;5.47;;
15130;SDS011;7666;50.920;4.628;2023-04-15T08:28:37;10.70;;;5.63;;
15130;SDS011;7666;50.920;4.628;2023-04-15T08:31:25;9.20;;;5.00;;
15130;SDS011;7666;50.920;4.628;2023-04-15T08:34:11;9.03;;;5.63;;
15130;SDS011;7666;50.920;4.628;2023-04-15T08:36:57;7.20;;;5.40;;
15130;SDS011;7666;50.920;4.628;2023-04-15T08:39:44;8.37;;;6.03;;
15130;SDS011;7666;50.920;4.628;2023-04-15T08:42:30;8.27;;;6.00;;
15130;SDS011;7666;50.920;4.628;2023-04-15T08:45:21;8.87;;;5.63;;
15130;SDS011;7666;50.920;4.628;2023-04-15T08:48:08;7.43;;;6.13;;
15130;SDS011;7666;50.920;4.628;2023-04-15T08:50:59;10.63;;;6.60;;
15130;SDS011;7666;50.920;4.628;2023-04-15T08:53:45;11.93;;;6.80;;
15130;SDS011;7666;50.920;4.628;2023-04-15T08:56:32;10.23;;;6.53;;
15130;SDS011;7666;50.920;4.628;2023-04-15T08:59:18;9.40;;;7.30;;
15130;SDS011;7666;50.920;4.628;2023-04-15T09:02:06;7.43;;;6.20;;
15130;SDS011;7666;50.920;4.628;2023-04-15T09:04:53;9.13;;;6.80;;
15130;SDS011;7666;50.920;4.628;2023-04-15T09:07:39;9.13;;;6.00;;
15130;SDS011;7666;50.920;4.628;2023-04-15T09:10:25;8.93;;;6.70;;
15130;SDS011;7666;50.920;4.628;2023-04-15T09:13:12;8.60;;;6.43;;
15130;SDS011;7666;50.920;4.628;2023-04-15T09:16:00;6.70;;;6.00;;
15130;SDS011;7666;50.920;4.628;2023-04-15T09:18:48;9.90;;;6.60;;
15130;SDS011;7666;50.920;4.628;2023-04-15T09:21:34;6.77;;;6.07;;
15130;SDS011;7666;50.920;4.628;2023-04-15T09:24:21;9.40;;;6.70;;
15130;SDS011;7666;50.920;4.628;2023-04-15T09:27:07;8.93;;;6.63;;
15130;SDS011;7666;50.920;4.628;2023-04-15T09:29:53;7.77;;;7.00;;
15130;SDS011;7666;50.920;4.628;2023-04-15T09:32:48;7.80;;;6.67;;
15130;SDS011;7666;50.920;4.628;2023-04-15T09:35:37;6.97;;;6.23;;
15130;SDS011;7666;50.920;4.628;2023-04-15T09:38:23;6.20;;;5.60;;
15130;SDS011;7666;50.920;4.628;2023-04-15T09:41:15;7.57;;;5.93;;
15130;SDS011;7666;50.920;4.628;2023-04-15T09:44:04;6.87;;;5.20;;
15130;SDS011;7666;50.920;4.628;2023-04-15T09:46:51;5.43;;;4.93;;
15130;SDS011;7666;50.920;4.628;2023-04-15T09:49:37;5.93;;;5.37;;
15130;SDS011;7666;50.920;4.628;2023-04-15T09:52:23;7.33;;;5.50;;
15130;SDS011;7666;50.920;4.628;2023-04-15T09:55:09;5.73;;;4.30;;
15130;SDS011;7666;50.920;4.628;2023-04-15T09:57:56;6.30;;;4.00;;
15130;SDS011;7666;50.920;4.628;2023-04-15T10:00:42;4.50;;;3.70;;
15130;SDS011;7666;50.920;4.628;2023-04-15T10:03:30;6.87;;;3.60;;
15130;SDS011;7666;50.920;4.628;2023-04-15T10:06:18;5.83;;;3.03;;
15130;SDS011;7666;50.920;4.628;2023-04-15T10:09:04;4.10;;;3.03;;
15130;SDS011;7666;50.920;4.628;2023-04-15T10:11:51;3.73;;;2.90;;
15130;SDS011;7666;50.920;4.628;2023-04-15T10:14:38;7.17;;;3.57;;
15130;SDS011;7666;50.920;4.628;2023-04-15T10:17:27;4.80;;;3.50;;
15130;SDS011;7666;50.920;4.628;2023-04-15T10:20:17;4.90;;;3.37;;
15130;SDS011;7666;50.920;4.628;2023-04-15T10:23:05;4.17;;;2.90;;
15130;SDS011;7666;50.920;4.628;2023-04-15T10:25:52;5.07;;;3.10;;
15130;SDS011;7666;50.920;4.628;2023-04-15T10:28:39;5.33;;;3.03;;
15130;SDS011;7666;50.920;4.628;2023-04-15T10:31:26;6.27;;;3.60;;
15130;SDS011;7666;50.920;4.628;2023-04-15T10:34:12;3.93;;;3.20;;
15130;SDS011;7666;50.920;4.628;2023-04-15T10:37:01;4.33;;;3.30;;
15130;SDS011;7666;50.920;4.628;2023-04-15T10:39:50;5.80;;;3.70;;
15130;SDS011;7666;50.920;4.628;2023-04-15T10:42:36;4.40;;;3.43;;
15130;SDS011;7666;50.920;4.628;2023-04-15T10:45:24;4.17;;;3.10;;
15130;SDS011;7666;50.920;4.628;2023-04-15T10:48:12;4.33;;;3.93;;
15130;SDS011;7666;50.920;4.628;2023-04-15T10:51:00;4.83;;;4.03;;
15130;SDS011;7666;50.920;4.628;2023-04-15T10:53:48;4.67;;;4.17;;
15130;SDS011;7666;50.920;4.628;2023-04-15T10:56:34;5.60;;;4.30;;
15130;SDS011;7666;50.920;4.628;2023-04-15T10:59:20;4.23;;;3.83;;
15130;SDS011;7666;50.920;4.628;2023-04-15T11:02:06;4.33;;;3.87;;
15130;SDS011;7666;50.920;4.628;2023-04-15T11:04:53;5.10;;;2.53;;
15130;SDS011;7666;50.920;4.628;2023-04-15T11:13:24;3.87;;;3.07;;
15130;SDS011;7666;50.920;4.628;2023-04-15T11:16:12;3.67;;;2.83;;
15130;SDS011;7666;50.920;4.628;2023-04-15T11:18:58;5.03;;;3.33;;
15130;SDS011;7666;50.920;4.628;2023-04-15T11:21:44;4.53;;;3.67;;
15130;SDS011;7666;50.920;4.628;2023-04-15T11:24:30;5.10;;;4.20;;
15130;SDS011;7666;50.920;4.628;2023-04-15T11:27:20;4.70;;;3.53;;
15130;SDS011;7666;50.920;4.628;2023-04-15T11:30:16;4.87;;;3.57;;
15130;SDS011;7666;50.920;4.628;2023-04-15T11:33:04;5.13;;;3.80;;
15130;SDS011;7666;50.920;4.628;2023-04-15T11:35:56;3.93;;;3.53;;
15130;SDS011;7666;50.920;4.628;2023-04-15T11:38:43;6.80;;;3.97;;
15130;SDS011;7666;50.920;4.628;2023-04-15T11:41:31;4.83;;;4.13;;
15130;SDS011;7666;50.920;4.628;2023-04-15T11:44:17;2.30;;;2.10;;
15130;SDS011;7666;50.920;4.628;2023-04-15T11:47:20;3.70;;;2.30;;
15130;SDS011;7666;50.920;4.628;2023-04-15T11:50:20;2.93;;;1.67;;
15130;SDS011;7666;50.920;4.628;2023-04-15T11:53:08;2.43;;;2.10;;
15130;SDS011;7666;50.920;4.628;2023-04-15T11:55:55;3.53;;;2.53;;
15130;SDS011;7666;50.920;4.628;2023-04-15T11:58:42;4.40;;;3.00;;
15130;SDS011;7666;50.920;4.628;2023-04-15T12:04:23;4.10;;;3.20;;
15130;SDS011;7666;50.920;4.628;2023-04-15T12:07:09;4.40;;;3.10;;
15130;SDS011;7666;50.920;4.628;2023-04-15T12:09:57;3.87;;;3.00;;
15130;SDS011;7666;50.920;4.628;2023-04-15T12:12:45;3.43;;;2.97;;
15130;SDS011;7666;50.920;4.628;2023-04-15T12:15:36;4.83;;;3.07;;
15130;SDS011;7666;50.920;4.628;2023-04-15T12:18:23;2.60;;;2.00;;
15130;SDS011;7666;50.920;4.628;2023-04-15T12:21:10;1.60;;;1.47;;
15130;SDS011;7666;50.920;4.628;2023-04-15T12:23:56;4.37;;;1.50;;
15130;SDS011;7666;50.920;4.628;2023-04-15T12:26:47;2.40;;;1.60;;
15130;SDS011;7666;50.920;4.628;2023-04-15T12:29:38;2.47;;;1.40;;
15130;SDS011;7666;50.920;4.628;2023-04-15T12:32:25;2.37;;;1.60;;
15130;SDS011;7666;50.920;4.628;2023-04-15T12:35:11;1.67;;;1.20;;
15130;SDS011;7666;50.920;4.628;2023-04-15T12:37:57;1.23;;;1.13;;
15130;SDS011;7666;50.920;4.628;2023-04-15T12:40:45;2.63;;;1.30;;
15130;SDS011;7666;50.920;4.628;2023-04-15T12:43:31;2.43;;;1.80;;
15130;SDS011;7666;50.920;4.628;2023-04-15T12:46:17;2.00;;;1.60;;
15130;SDS011;7666;50.920;4.628;2023-04-15T12:49:04;2.97;;;2.10;;
15130;SDS011;7666;50.920;4.628;2023-04-15T12:51:51;4.93;;;2.20;;
15130;SDS011;7666;50.920;4.628;2023-04-15T12:54:39;3.47;;;1.83;;
15130;SDS011;7666;50.920;4.628;2023-04-15T12:57:25;2.17;;;1.97;;
15130;SDS011;7666;50.920;4.628;2023-04-15T13:00:11;3.43;;;1.70;;
15130;SDS011;7666;50.920;4.628;2023-04-15T13:02:57;2.53;;;2.07;;
15130;SDS011;7666;50.920;4.628;2023-04-15T13:05:43;3.97;;;1.87;;
15130;SDS011;7666;50.920;4.628;2023-04-15T13:08:29;3.43;;;1.97;;
15130;SDS011;7666;50.920;4.628;2023-04-15T13:11:16;4.23;;;1.70;;
15130;SDS011;7666;50.920;4.628;2023-04-15T13:14:02;1.90;;;1.50;;
15130;SDS011;7666;50.920;4.628;2023-04-15T13:16:50;2.43;;;1.47;;
15130;SDS011;7666;50.920;4.628;2023-04-15T13:19:37;3.23;;;1.90;;
15130;SDS011;7666;50.920;4.628;2023-04-15T13:22:23;3.93;;;1.80;;
15130;SDS011;7666;50.920;4.628;2023-04-15T13:25:09;2.97;;;1.90;;
15130;SDS011;7666;50.920;4.628;2023-04-15T13:27:56;3.57;;;2.30;;
15130;SDS011;7666;50.920;4.628;2023-04-15T13:30:42;3.43;;;2.07;;
15130;SDS011;7666;50.920;4.628;2023-04-15T13:33:28;4.50;;;2.00;;
15130;SDS011;7666;50.920;4.628;2023-04-15T13:36:14;3.67;;;1.90;;
15130;SDS011;7666;50.920;4.628;2023-04-15T13:39:00;2.17;;;1.90;;
15130;SDS011;7666;50.920;4.628;2023-04-15T13:41:47;4.00;;;2.60;;
15130;SDS011;7666;50.920;4.628;2023-04-15T13:44:33;3.43;;;2.50;;
15130;SDS011;7666;50.920;4.628;2023-04-15T13:47:19;2.73;;;2.03;;
15130;SDS011;7666;50.920;4.628;2023-04-15T13:50:06;3.40;;;2.10;;
15130;SDS011;7666;50.920;4.628;2023-04-15T13:52:52;2.90;;;2.33;;
15130;SDS011;7666;50.920;4.628;2023-04-15T13:55:38;3.07;;;2.00;;
15130;SDS011;7666;50.920;4.628;2023-04-15T13:58:27;4.37;;;1.90;;
15130;SDS011;7666;50.920;4.628;2023-04-15T14:01:13;4.80;;;2.20;;
15130;SDS011;7666;50.920;4.628;2023-04-15T14:03:59;4.23;;;2.00;;
15130;SDS011;7666;50.920;4.628;2023-04-15T14:06:45;3.07;;;2.10;;
15130;SDS011;7666;50.920;4.628;2023-04-15T14:09:31;3.50;;;2.00;;
15130;SDS011;7666;50.920;4.628;2023-04-15T14:12:17;4.13;;;1.90;;
15130;SDS011;7666;50.920;4.628;2023-04-15T14:15:03;4.13;;;1.40;;
15130;SDS011;7666;50.920;4.628;2023-04-15T14:17:50;2.60;;;1.20;;
15130;SDS011;7666;50.920;4.628;2023-04-15T14:20:36;3.53;;;1.27;;
15130;SDS011;7666;50.920;4.628;2023-04-15T14:23:22;3.77;;;1.27;;
15130;SDS011;7666;50.920;4.628;2023-04-15T14:26:08;2.10;;;1.70;;
15130;SDS011;7666;50.920;4.628;2023-04-15T14:28:54;3.17;;;1.10;;
15130;SDS011;7666;50.920;4.628;2023-04-15T14:31:40;3.67;;;1.60;;
15130;SDS011;7666;50.920;4.628;2023-04-15T14:34:26;1.80;;;1.40;;
15130;SDS011;7666;50.920;4.628;2023-04-15T14:37:12;3.47;;;1.50;;
15130;SDS011;7666;50.920;4.628;2023-04-15T14:39:58;4.13;;;1.53;;
15130;SDS011;7666;50.920;4.628;2023-04-15T14:42:44;3.87;;;1.50;;
15130;SDS011;7666;50.920;4.628;2023-04-15T14:45:30;2.50;;;1.80;;
15130;SDS011;7666;50.920;4.628;2023-04-15T14:48:17;3.67;;;1.60;;
15130;SDS011;7666;50.920;4.628;2023-04-15T14:51:03;2.57;;;1.50;;
15130;SDS011;7666;50.920;4.628;2023-04-15T14:53:49;2.17;;;1.30;;
15130;SDS011;7666;50.920;4.628;2023-04-15T14:56:35;1.87;;;1.50;;
15130;SDS011;7666;50.920;4.628;2023-04-15T14:59:21;2.73;;;1.80;;
15130;SDS011;7666;50.920;4.628;2023-04-15T15:02:07;2.20;;;1.50;;
15130;SDS011;7666;50.920;4.628;2023-04-15T15:04:53;2.23;;;1.30;;
15130;SDS011;7666;50.920;4.628;2023-04-15T15:07:39;2.47;;;1.53;;
15130;SDS011;7666;50.920;4.628;2023-04-15T15:10:25;3.53;;;1.60;;
15130;SDS011;7666;50.920;4.628;2023-04-15T15:13:11;2.33;;;1.40;;
15130;SDS011;7666;50.920;4.628;2023-04-15T15:15:57;5.17;;;1.70;;
15130;SDS011;7666;50.920;4.628;2023-04-15T15:18:43;3.30;;;2.23;;
15130;SDS011;7666;50.920;4.628;2023-04-15T15:21:29;2.00;;;1.70;;
15130;SDS011;7666;50.920;4.628;2023-04-15T15:24:15;3.47;;;2.00;;
15130;SDS011;7666;50.920;4.628;2023-04-15T15:27:02;2.73;;;2.40;;
15130;SDS011;7666;50.920;4.628;2023-04-15T15:29:48;3.43;;;2.30;;
15130;SDS011;7666;50.920;4.628;2023-04-15T15:32:34;3.90;;;1.80;;
15130;SDS011;7666;50.920;4.628;2023-04-15T15:35:20;2.40;;;2.17;;
15130;SDS011;7666;50.920;4.628;2023-04-15T15:38:09;3.90;;;2.00;;
15130;SDS011;7666;50.920;4.628;2023-04-15T15:40:56;5.77;;;2.37;;
15130;SDS011;7666;50.920;4.628;2023-04-15T15:43:42;3.20;;;2.50;;
15130;SDS011;7666;50.920;4.628;2023-04-15T15:46:28;4.63;;;2.50;;
15130;SDS011;7666;50.920;4.628;2023-04-15T15:49:15;4.10;;;2.20;;
15130;SDS011;7666;50.920;4.628;2023-04-15T15:52:01;4.20;;;2.10;;
15130;SDS011;7666;50.920;4.628;2023-04-15T15:54:47;2.67;;;1.70;;
15130;SDS011;7666;50.920;4.628;2023-04-15T15:57:33;6.13;;;1.50;;
15130;SDS011;7666;50.920;4.628;2023-04-15T16:00:19;3.50;;;1.60;;
15130;SDS011;7666;50.920;4.628;2023-04-15T16:03:07;3.40;;;1.70;;
15130;SDS011;7666;50.920;4.628;2023-04-15T16:05:53;2.90;;;1.83;;
15130;SDS011;7666;50.920;4.628;2023-04-15T16:08:39;2.87;;;1.77;;
15130;SDS011;7666;50.920;4.628;2023-04-15T16:11:25;2.50;;;1.77;;
15130;SDS011;7666;50.920;4.628;2023-04-15T16:14:12;3.57;;;1.57;;
15130;SDS011;7666;50.920;4.628;2023-04-15T16:16:58;2.73;;;1.77;;
15130;SDS011;7666;50.920;4.628;2023-04-15T16:19:44;2.73;;;1.50;;
15130;SDS011;7666;50.920;4.628;2023-04-15T16:22:31;2.20;;;1.10;;
15130;SDS011;7666;50.920;4.628;2023-04-15T16:25:18;1.73;;;1.20;;
15130;SDS011;7666;50.920;4.628;2023-04-15T16:28:04;1.93;;;1.20;;
15130;SDS011;7666;50.920;4.628;2023-04-15T16:30:50;1.50;;;1.27;;
15130;SDS011;7666;50.920;4.628;2023-04-15T16:33:37;2.10;;;1.30;;
15130;SDS011;7666;50.920;4.628;2023-04-15T16:36:23;2.73;;;1.37;;
15130;SDS011;7666;50.920;4.628;2023-04-15T16:39:09;6.73;;;1.70;;
15130;SDS011;7666;50.920;4.628;2023-04-15T16:41:55;2.77;;;1.10;;
15130;SDS011;7666;50.920;4.628;2023-04-15T16:44:42;3.60;;;2.00;;
15130;SDS011;7666;50.920;4.628;2023-04-15T16:47:27;2.33;;;1.50;;
15130;SDS011;7666;50.920;4.628;2023-04-15T16:50:13;2.30;;;1.70;;
15130;SDS011;7666;50.920;4.628;2023-04-15T16:53:00;4.00;;;1.70;;
15130;SDS011;7666;50.920;4.628;2023-04-15T16:55:46;3.87;;;1.70;;
15130;SDS011;7666;50.920;4.628;2023-04-15T16:58:32;2.47;;;1.63;;
15130;SDS011;7666;50.920;4.628;2023-04-15T17:01:18;2.67;;;1.57;;
15130;SDS011;7666;50.920;4.628;2023-04-15T17:04:05;2.80;;;1.40;;
15130;SDS011;7666;50.920;4.628;2023-04-15T17:06:51;3.53;;;1.83;;